Time;durP1;ratioP1;P1;durP2;ratioP2;P2;SDS_P1;SDS_P2;PMS_P1;PMS_P2;Temp;Humidity;BMP_temperature;BMP_pressure;BME280_temperature;BME280_humidity;BME280_pressure;Samples;Min_cycle;Max_cycle;Signal;HPM_P1;HPM_P2
2021/09/23 00:00:21;;;;;;;11.48;5.60;;;;;;;;;;4996583;28;20026;-59
2021/09/23 00:02:49;;;;;;;11.52;5.28;;;;;;;;;;5005459;28;20083;-60
2021/09/23 00:05:22;;;;;;;14.05;6.25;;;;;;;;;;4995683;28;20034;-59
2021/09/23 00:07:50;;;;;;;12.63;5.38;;;;;;;;;;5042619;28;20037;-60
2021/09/23 00:10:18;;;;;;;12.00;5.38;;;;;;;;;;4987457;28;20050;-59
2021/09/23 00:12:44;;;;;;;14.20;6.13;;;;;;;;;;4992912;28;20041;-60
2021/09/23 00:15:13;;;;;;;12.68;6.47;;;;;;;;;;5006485;28;20270;-59
2021/09/23 00:17:38;;;;;;;15.18;7.07;;;;;;;;;;4995999;28;20034;-60
2021/09/23 00:20:04;;;;;;;13.48;6.90;;;;;;;;;;5042446;28;20022;-59
2021/09/23 00:22:30;;;;;;;12.88;6.05;;;;;;;;;;4993526;28;20443;-59
2021/09/23 00:24:55;;;;;;;9.30;5.65;;;;;;;;;;4996574;28;20198;-59
2021/09/23 00:27:21;;;;;;;13.52;6.22;;;;;;;;;;4987610;28;20084;-59
2021/09/23 00:29:46;;;;;;;12.48;6.22;;;;;;;;;;5007482;28;20034;-60
2021/09/23 00:32:12;;;;;;;12.88;6.63;;;;;;;;;;4991542;28;20061;-60
2021/09/23 00:34:37;;;;;;;15.38;6.57;;;;;;;;;;4999604;28;20042;-60
2021/09/23 00:37:02;;;;;;;13.35;5.75;;;;;;;;;;4989954;28;20369;-59
2021/09/23 00:39:28;;;;;;;13.13;6.55;;;;;;;;;;4989052;28;20023;-59
2021/09/23 00:41:53;;;;;;;11.30;5.60;;;;;;;;;;5044163;28;20125;-60
2021/09/23 00:44:21;;;;;;;11.32;5.80;;;;;;;;;;5000998;28;20029;-59
2021/09/23 00:46:49;;;;;;;15.57;6.47;;;;;;;;;;4995507;28;20084;-59
2021/09/23 00:49:15;;;;;;;11.05;5.30;;;;;;;;;;4996332;28;20045;-59
2021/09/23 00:51:43;;;;;;;7.50;4.72;;;;;;;;;;5070888;28;20108;-60
2021/09/23 00:54:09;;;;;;;10.52;5.93;;;;;;;;;;5045620;28;20034;-59
2021/09/23 00:56:34;;;;;;;12.15;5.72;;;;;;;;;;5005339;28;20030;-59
2021/09/23 00:59:00;;;;;;;12.57;5.57;;;;;;;;;;4996269;28;20548;-59
2021/09/23 01:01:25;;;;;;;10.73;5.35;;;;;;;;;;5050253;28;20034;-58
2021/09/23 01:03:54;;;;;;;13.80;5.30;;;;;;;;;;4997278;28;20111;-59
2021/09/23 01:06:20;;;;;;;8.45;5.20;;;;;;;;;;5053478;28;20030;-60
2021/09/23 01:08:57;;;;;;;9.85;5.22;;;;;;;;;;4997724;28;20058;-60
2021/09/23 01:11:23;;;;;;;11.05;5.10;;;;;;;;;;4989793;28;20102;-59
2021/09/23 01:13:49;;;;;;;12.40;5.28;;;;;;;;;;4992093;28;20508;-59
2021/09/23 01:16:15;;;;;;;8.55;4.97;;;;;;;;;;4990413;28;20041;-60
2021/09/23 01:18:41;;;;;;;8.52;5.25;;;;;;;;;;4994419;28;20030;-61
2021/09/23 01:21:07;;;;;;;11.32;4.82;;;;;;;;;;4983321;28;20026;-59
2021/09/23 01:23:40;;;;;;;8.35;5.18;;;;;;;;;;4989722;28;20035;-61
2021/09/23 01:26:11;;;;;;;11.20;5.20;;;;;;;;;;5003033;28;20042;-60
2021/09/23 01:28:39;;;;;;;10.57;5.22;;;;;;;;;;5007115;28;20030;-60
2021/09/23 01:31:05;;;;;;;8.98;4.90;;;;;;;;;;5052880;28;20022;-61
2021/09/23 01:33:30;;;;;;;8.75;4.82;;;;;;;;;;5050704;28;20042;-60
2021/09/23 01:35:58;;;;;;;11.10;5.30;;;;;;;;;;5045280;28;20038;-60
2021/09/23 01:38:24;;;;;;;7.72;4.97;;;;;;;;;;5004738;28;20098;-60
2021/09/23 01:40:50;;;;;;;12.05;6.25;;;;;;;;;;5046000;28;20511;-60
2021/09/23 01:43:15;;;;;;;13.05;7.55;;;;;;;;;;4985689;28;20030;-60
2021/09/23 01:45:41;;;;;;;16.33;7.95;;;;;;;;;;5003790;28;20485;-61
2021/09/23 01:48:06;;;;;;;14.48;8.38;;;;;;;;;;4991660;28;20045;-60
2021/09/23 01:50:31;;;;;;;15.05;8.45;;;;;;;;;;4994014;28;20043;-61
2021/09/23 01:52:57;;;;;;;14.15;8.75;;;;;;;;;;5046206;28;20035;-60
2021/09/23 01:55:22;;;;;;;14.23;8.25;;;;;;;;;;4998793;28;20033;-60
2021/09/23 01:57:48;;;;;;;15.27;7.38;;;;;;;;;;5012832;28;20025;-60
2021/09/23 02:00:14;;;;;;;12.60;6.70;;;;;;;;;;5052093;28;20152;-60
2021/09/23 02:02:40;;;;;;;11.85;6.50;;;;;;;;;;4994319;28;20031;-60
2021/09/23 02:05:06;;;;;;;11.50;6.15;;;;;;;;;;5000700;28;20128;-60
2021/09/23 02:07:31;;;;;;;14.18;6.82;;;;;;;;;;4997600;28;20184;-60
2021/09/23 02:09:57;;;;;;;12.07;6.45;;;;;;;;;;4986676;28;20029;-60
2021/09/23 02:12:22;;;;;;;10.65;6.03;;;;;;;;;;5050127;28;20033;-60
2021/09/23 02:14:48;;;;;;;10.60;5.93;;;;;;;;;;4985146;28;20026;-60
2021/09/23 02:17:14;;;;;;;12.98;5.65;;;;;;;;;;4989763;28;20530;-59
2021/09/23 02:19:39;;;;;;;10.10;5.45;;;;;;;;;;5003102;28;20042;-60
2021/09/23 02:22:05;;;;;;;8.40;4.63;;;;;;;;;;4985529;28;20045;-60
2021/09/23 02:24:30;;;;;;;10.77;5.63;;;;;;;;;;5012614;28;20022;-60
2021/09/23 02:26:56;;;;;;;10.05;5.47;;;;;;;;;;5004049;28;20046;-60
2021/09/23 02:29:21;;;;;;;12.77;4.90;;;;;;;;;;5046935;28;20030;-60
2021/09/23 02:31:46;;;;;;;9.48;4.93;;;;;;;;;;5000040;28;20022;-60
2021/09/23 02:34:12;;;;;;;9.05;5.60;;;;;;;;;;4998528;28;20030;-60
2021/09/23 02:36:38;;;;;;;9.30;5.32;;;;;;;;;;4995222;28;20097;-61
2021/09/23 02:39:03;;;;;;;11.30;5.47;;;;;;;;;;4988390;28;20405;-60
2021/09/23 02:41:31;;;;;;;9.23;5.53;;;;;;;;;;5024409;28;20086;-60
2021/09/23 02:43:57;;;;;;;11.63;6.03;;;;;;;;;;5010912;28;20032;-61
2021/09/23 02:46:22;;;;;;;10.18;6.10;;;;;;;;;;5001655;28;20025;-60
2021/09/23 02:48:48;;;;;;;9.18;5.10;;;;;;;;;;5003349;28;20134;-60
2021/09/23 02:51:13;;;;;;;9.93;5.55;;;;;;;;;;5024070;28;20020;-60
2021/09/23 02:53:39;;;;;;;10.05;4.97;;;;;;;;;;5021105;28;20027;-60
2021/09/23 02:56:04;;;;;;;9.85;5.60;;;;;;;;;;5049435;28;20028;-61
2021/09/23 02:58:30;;;;;;;9.88;5.60;;;;;;;;;;4997343;28;20053;-60
2021/09/23 03:00:55;;;;;;;9.15;5.00;;;;;;;;;;4999704;28;20069;-60
2021/09/23 03:03:21;;;;;;;14.35;7.03;;;;;;;;;;4989333;28;20595;-60
2021/09/23 03:05:46;;;;;;;13.95;6.38;;;;;;;;;;4992784;28;20038;-61
2021/09/23 03:08:12;;;;;;;9.38;5.63;;;;;;;;;;5009996;28;20039;-60
2021/09/23 03:10:37;;;;;;;14.82;5.60;;;;;;;;;;5001807;28;20400;-60
2021/09/23 03:13:03;;;;;;;10.80;6.18;;;;;;;;;;4989856;28;20076;-60
2021/09/23 03:15:28;;;;;;;14.77;6.45;;;;;;;;;;5000338;28;20034;-60
2021/09/23 03:17:54;;;;;;;10.13;5.75;;;;;;;;;;5065966;28;20113;-60
2021/09/23 03:20:22;;;;;;;10.48;5.55;;;;;;;;;;4993014;28;20118;-60
2021/09/23 03:22:50;;;;;;;9.18;5.93;;;;;;;;;;5047694;28;20026;-58
2021/09/23 03:25:15;;;;;;;11.00;5.82;;;;;;;;;;4983518;28;20049;-61
2021/09/23 03:27:42;;;;;;;10.02;5.25;;;;;;;;;;5011110;28;20018;-60
2021/09/23 03:30:08;;;;;;;12.88;6.35;;;;;;;;;;5023243;28;20072;-61
2021/09/23 03:32:33;;;;;;;9.93;5.53;;;;;;;;;;4996382;28;20023;-61
2021/09/23 03:34:59;;;;;;;10.32;5.00;;;;;;;;;;4993809;28;20030;-61
2021/09/23 03:37:24;;;;;;;11.27;5.45;;;;;;;;;;5051282;28;20030;-60
2021/09/23 03:39:49;;;;;;;11.70;6.40;;;;;;;;;;5003639;28;20366;-60
2021/09/23 03:42:15;;;;;;;9.65;6.07;;;;;;;;;;5049670;28;20513;-60
2021/09/23 03:44:40;;;;;;;10.27;5.38;;;;;;;;;;4989441;28;20027;-60
2021/09/23 03:47:06;;;;;;;11.10;5.70;;;;;;;;;;5002961;28;20105;-60
2021/09/23 03:49:31;;;;;;;12.55;6.88;;;;;;;;;;4983759;28;20026;-60
2021/09/23 03:51:57;;;;;;;11.55;6.68;;;;;;;;;;4987466;28;20026;-60
2021/09/23 03:54:22;;;;;;;9.70;5.45;;;;;;;;;;4994261;28;20427;-60
2021/09/23 03:56:48;;;;;;;11.63;5.95;;;;;;;;;;4981194;28;20027;-60
2021/09/23 03:59:13;;;;;;;11.43;6.22;;;;;;;;;;5003284;28;20573;-60
2021/09/23 04:01:39;;;;;;;17.50;7.70;;;;;;;;;;4991071;28;20046;-60
2021/09/23 04:04:04;;;;;;;13.10;7.30;;;;;;;;;;5007440;28;20045;-60
2021/09/23 04:06:29;;;;;;;15.98;8.35;;;;;;;;;;4997361;28;20543;-60
2021/09/23 04:08:55;;;;;;;13.77;7.07;;;;;;;;;;5049896;28;20088;-60
2021/09/23 04:11:20;;;;;;;12.23;7.63;;;;;;;;;;5010871;28;20018;-60
2021/09/23 04:13:46;;;;;;;15.75;8.25;;;;;;;;;;4990981;28;20034;-60
2021/09/23 04:16:11;;;;;;;18.95;8.95;;;;;;;;;;4990189;28;20509;-60
2021/09/23 04:18:37;;;;;;;19.90;10.00;;;;;;;;;;4982051;28;20030;-60
2021/09/23 04:21:02;;;;;;;18.85;8.05;;;;;;;;;;5001421;28;20024;-60
2021/09/23 04:23:28;;;;;;;14.50;7.70;;;;;;;;;;4981718;28;20062;-60
2021/09/23 04:25:53;;;;;;;13.88;7.85;;;;;;;;;;4991269;28;20022;-60
2021/09/23 04:28:19;;;;;;;17.15;8.98;;;;;;;;;;4989282;28;20030;-60
2021/09/23 04:30:44;;;;;;;12.52;7.43;;;;;;;;;;5000975;28;20024;-60
2021/09/23 04:33:09;;;;;;;15.57;8.15;;;;;;;;;;5027868;28;20111;-60
2021/09/23 04:35:35;;;;;;;11.95;7.25;;;;;;;;;;5007672;28;20028;-60
2021/09/23 04:38:01;;;;;;;15.98;8.30;;;;;;;;;;4978627;28;20103;-60
2021/09/23 04:40:26;;;;;;;14.52;8.55;;;;;;;;;;5010827;28;20035;-60
2021/09/23 04:42:52;;;;;;;15.57;8.18;;;;;;;;;;5021115;28;20020;-60
2021/09/23 04:45:18;;;;;;;16.00;8.15;;;;;;;;;;5008977;28;20505;-60
2021/09/23 04:47:43;;;;;;;15.90;9.07;;;;;;;;;;4996347;28;20485;-60
2021/09/23 04:50:09;;;;;;;23.58;11.20;;;;;;;;;;5013123;28;20026;-60
2021/09/23 04:52:35;;;;;;;23.48;10.40;;;;;;;;;;4989607;28;20117;-60
2021/09/23 04:55:00;;;;;;;16.60;7.80;;;;;;;;;;5006581;28;20095;-60
2021/09/23 04:57:26;;;;;;;18.20;7.78;;;;;;;;;;5026886;28;20063;-60
2021/09/23 04:59:51;;;;;;;14.48;7.63;;;;;;;;;;5002364;28;20081;-60
2021/09/23 05:02:17;;;;;;;15.75;7.68;;;;;;;;;;5026896;28;20087;-59
2021/09/23 05:04:44;;;;;;;19.05;8.55;;;;;;;;;;4995293;28;20088;-59
2021/09/23 05:07:10;;;;;;;16.38;8.98;;;;;;;;;;4999160;28;20117;-57
2021/09/23 05:09:37;;;;;;;14.63;8.55;;;;;;;;;;5009813;28;20038;-57
2021/09/23 05:12:03;;;;;;;40.63;16.55;;;;;;;;;;5011417;28;20428;-57
2021/09/23 05:14:29;;;;;;;26.90;10.77;;;;;;;;;;5010639;28;20501;-58
2021/09/23 05:16:55;;;;;;;21.83;9.65;;;;;;;;;;5006889;28;20060;-59
2021/09/23 05:19:20;;;;;;;19.52;9.68;;;;;;;;;;5006830;28;20497;-59
2021/09/23 05:21:45;;;;;;;16.27;8.85;;;;;;;;;;4997988;28;20576;-57
2021/09/23 05:24:13;;;;;;;15.73;8.55;;;;;;;;;;4992346;28;20106;-58
2021/09/23 05:26:39;;;;;;;16.75;8.45;;;;;;;;;;5040427;28;20024;-58
2021/09/23 05:29:04;;;;;;;16.77;8.88;;;;;;;;;;5010874;28;20401;-58
2021/09/23 05:31:30;;;;;;;19.50;10.10;;;;;;;;;;5052188;28;20034;-58
2021/09/23 05:33:56;;;;;;;17.48;9.93;;;;;;;;;;5031465;28;20095;-58
2021/09/23 05:36:22;;;;;;;19.45;10.43;;;;;;;;;;4995172;28;20125;-57
2021/09/23 05:38:47;;;;;;;21.92;11.23;;;;;;;;;;4991558;28;20120;-58
2021/09/23 05:41:12;;;;;;;19.38;11.02;;;;;;;;;;5004526;28;20057;-58
2021/09/23 05:43:39;;;;;;;17.88;10.40;;;;;;;;;;4987481;28;20040;-57
2021/09/23 05:46:05;;;;;;;32.10;15.25;;;;;;;;;;4997602;28;20395;-58
2021/09/23 05:48:30;;;;;;;23.13;12.07;;;;;;;;;;5058900;28;20121;-59
2021/09/23 05:50:55;;;;;;;29.25;13.40;;;;;;;;;;5006672;28;20022;-59
2021/09/23 05:53:21;;;;;;;24.52;12.48;;;;;;;;;;4995417;28;20026;-58
2021/09/23 05:55:46;;;;;;;18.42;11.30;;;;;;;;;;4997975;28;20392;-58
2021/09/23 05:58:12;;;;;;;28.52;14.40;;;;;;;;;;5005300;28;20111;-58
2021/09/23 06:00:37;;;;;;;25.42;13.05;;;;;;;;;;4996397;28;20485;-58
2021/09/23 06:03:03;;;;;;;23.08;13.18;;;;;;;;;;5059930;28;20329;-57
2021/09/23 06:05:28;;;;;;;25.88;11.60;;;;;;;;;;4994614;28;20560;-58
2021/09/23 06:07:53;;;;;;;26.75;14.18;;;;;;;;;;4993266;28;20033;-58
2021/09/23 06:10:19;;;;;;;22.52;12.75;;;;;;;;;;5005840;28;20381;-57
2021/09/23 06:12:44;;;;;;;29.48;13.55;;;;;;;;;;5060241;28;20050;-58
2021/09/23 06:15:11;;;;;;;23.05;12.82;;;;;;;;;;4992440;28;20022;-57
2021/09/23 06:17:38;;;;;;;24.20;12.45;;;;;;;;;;5020944;28;20042;-58
2021/09/23 06:20:05;;;;;;;25.15;12.32;;;;;;;;;;4989651;28;20091;-59
2021/09/23 06:22:30;;;;;;;23.92;12.32;;;;;;;;;;4995003;28;20053;-58
2021/09/23 06:24:56;;;;;;;22.73;11.32;;;;;;;;;;5022440;28;20044;-58
2021/09/23 06:27:21;;;;;;;19.08;10.30;;;;;;;;;;5009465;28;20553;-59
2021/09/23 06:29:47;;;;;;;18.35;9.40;;;;;;;;;;5050292;28;23779;-58
2021/09/23 06:32:14;;;;;;;20.38;8.70;;;;;;;;;;5053210;28;20174;-58
2021/09/23 06:34:39;;;;;;;25.42;11.98;;;;;;;;;;5059213;28;20036;-58
2021/09/23 06:37:05;;;;;;;26.58;12.80;;;;;;;;;;5024589;28;20028;-58
2021/09/23 06:39:31;;;;;;;29.98;14.80;;;;;;;;;;5019013;28;20483;-58
2021/09/23 06:41:58;;;;;;;25.65;14.02;;;;;;;;;;5050904;28;20041;-58
2021/09/23 06:44:23;;;;;;;27.90;13.80;;;;;;;;;;5051987;28;20430;-59
2021/09/23 06:46:49;;;;;;;26.92;15.35;;;;;;;;;;4989336;28;20029;-59
2021/09/23 06:49:14;;;;;;;29.30;14.05;;;;;;;;;;5031991;28;20030;-59
2021/09/23 06:51:40;;;;;;;26.60;13.35;;;;;;;;;;4990541;28;20026;-59
2021/09/23 06:54:06;;;;;;;31.75;14.75;;;;;;;;;;4988178;28;20035;-59
2021/09/23 06:56:33;;;;;;;29.83;13.60;;;;;;;;;;4985853;28;20035;-59
2021/09/23 06:58:59;;;;;;;28.10;13.32;;;;;;;;;;4987345;28;20031;-58
2021/09/23 07:01:24;;;;;;;29.33;13.77;;;;;;;;;;4991593;28;20075;-59
2021/09/23 07:03:49;;;;;;;27.13;13.38;;;;;;;;;;5052854;28;20048;-59
2021/09/23 07:06:15;;;;;;;29.65;13.23;;;;;;;;;;4984270;28;20022;-59
2021/09/23 07:08:40;;;;;;;27.23;12.75;;;;;;;;;;4984036;28;20022;-59
2021/09/23 07:11:06;;;;;;;27.00;13.40;;;;;;;;;;4998346;28;20057;-59
2021/09/23 07:13:31;;;;;;;25.35;12.50;;;;;;;;;;5005477;28;20058;-59
2021/09/23 07:15:59;;;;;;;20.30;11.48;;;;;;;;;;4998870;28;20053;-58
2021/09/23 07:18:25;;;;;;;24.17;13.38;;;;;;;;;;4993572;28;20489;-58
2021/09/23 07:20:50;;;;;;;25.60;12.48;;;;;;;;;;4991163;28;20034;-58
2021/09/23 07:23:16;;;;;;;25.42;12.43;;;;;;;;;;5008156;28;20022;-59
2021/09/23 07:25:41;;;;;;;25.00;12.60;;;;;;;;;;5012849;28;20096;-59
2021/09/23 07:28:07;;;;;;;21.02;11.65;;;;;;;;;;5022596;28;20029;-59
2021/09/23 07:30:32;;;;;;;23.52;11.95;;;;;;;;;;4998448;28;20079;-59
2021/09/23 07:32:57;;;;;;;23.83;13.13;;;;;;;;;;4998880;28;20508;-58
2021/09/23 07:35:23;;;;;;;26.55;12.85;;;;;;;;;;4998729;28;20125;-58
2021/09/23 07:37:48;;;;;;;27.38;12.65;;;;;;;;;;5051697;28;20077;-58
2021/09/23 07:40:14;;;;;;;25.75;12.93;;;;;;;;;;5058491;28;20019;-60
2021/09/23 07:42:40;;;;;;;23.42;11.63;;;;;;;;;;4996007;28;20042;-58
2021/09/23 07:45:08;;;;;;;27.58;13.13;;;;;;;;;;5003441;28;20055;-58
2021/09/23 07:47:33;;;;;;;22.88;12.02;;;;;;;;;;5052261;28;20018;-59
2021/09/23 07:49:58;;;;;;;25.00;12.35;;;;;;;;;;4987192;28;20383;-59
2021/09/23 07:52:24;;;;;;;21.73;12.27;;;;;;;;;;5036489;28;20030;-58
2021/09/23 07:54:54;;;;;;;23.10;11.82;;;;;;;;;;5026761;28;20099;-58
2021/09/23 07:57:20;;;;;;;23.23;12.45;;;;;;;;;;4991493;28;20022;-59
2021/09/23 07:59:45;;;;;;;25.00;13.18;;;;;;;;;;4992531;28;20040;-59
2021/09/23 08:02:10;;;;;;;23.98;11.90;;;;;;;;;;4994979;28;20027;-58
2021/09/23 08:04:36;;;;;;;22.40;12.13;;;;;;;;;;5013230;28;20091;-58
2021/09/23 08:07:02;;;;;;;21.55;11.52;;;;;;;;;;5003700;28;20496;-59
2021/09/23 08:09:27;;;;;;;17.30;10.30;;;;;;;;;;5008447;28;20020;-59
2021/09/23 08:11:52;;;;;;;18.88;9.88;;;;;;;;;;4987866;28;20099;-58
2021/09/23 08:14:18;;;;;;;16.98;9.75;;;;;;;;;;5007905;28;20027;-59
2021/09/23 08:16:44;;;;;;;23.23;10.50;;;;;;;;;;4994613;28;20034;-58
2021/09/23 08:19:11;;;;;;;18.45;9.90;;;;;;;;;;5022266;28;20018;-58
2021/09/23 08:21:37;;;;;;;18.17;10.23;;;;;;;;;;5020787;28;20461;-59
2021/09/23 08:24:02;;;;;;;21.67;10.52;;;;;;;;;;4991506;28;20122;-59
2021/09/23 08:26:28;;;;;;;21.80;10.75;;;;;;;;;;5017594;28;20102;-59
2021/09/23 08:28:54;;;;;;;19.95;11.45;;;;;;;;;;5014564;28;20520;-58
2021/09/23 08:31:21;;;;;;;22.63;10.82;;;;;;;;;;5028153;28;20610;-59
2021/09/23 08:33:47;;;;;;;19.58;10.07;;;;;;;;;;4998948;28;20393;-58
2021/09/23 08:36:13;;;;;;;20.42;9.63;;;;;;;;;;5048993;28;20125;-59
2021/09/23 08:38:38;;;;;;;17.17;9.95;;;;;;;;;;5016070;28;20122;-58
2021/09/23 08:41:04;;;;;;;18.45;9.95;;;;;;;;;;5038839;28;20081;-58
2021/09/23 08:43:29;;;;;;;17.38;8.55;;;;;;;;;;5013670;28;20027;-58
2021/09/23 08:45:56;;;;;;;16.38;9.73;;;;;;;;;;5007870;28;20066;-58
2021/09/23 08:48:22;;;;;;;19.02;9.38;;;;;;;;;;4999968;28;20087;-58
2021/09/23 08:50:49;;;;;;;17.92;9.50;;;;;;;;;;5009629;28;20427;-57
2021/09/23 08:53:14;;;;;;;18.95;8.82;;;;;;;;;;4992276;28;20030;-58
2021/09/23 08:55:40;;;;;;;15.82;8.82;;;;;;;;;;5009618;28;20084;-57
2021/09/23 08:58:07;;;;;;;18.15;8.57;;;;;;;;;;5023098;28;20044;-57
2021/09/23 09:00:38;;;;;;;13.32;7.57;;;;;;;;;;5002864;28;20108;-57
2021/09/23 09:03:06;;;;;;;13.75;7.75;;;;;;;;;;5013607;28;20032;-57
2021/09/23 09:05:33;;;;;;;15.68;7.97;;;;;;;;;;4990644;28;20027;-58
2021/09/23 09:08:13;;;;;;;15.75;7.63;;;;;;;;;;4993107;28;20034;-58
2021/09/23 09:10:40;;;;;;;13.73;7.00;;;;;;;;;;5031513;28;20050;-58
2021/09/23 09:13:08;;;;;;;20.52;8.27;;;;;;;;;;5009632;28;20037;-58
2021/09/23 09:15:36;;;;;;;13.85;7.70;;;;;;;;;;4990645;28;20038;-61
2021/09/23 09:18:16;;;;;;;12.98;7.68;;;;;;;;;;5049626;28;20504;-58
2021/09/23 09:20:59;;;;;;;17.23;7.43;;;;;;;;;;5022587;28;20092;-58
2021/09/23 09:23:31;;;;;;;16.98;8.15;;;;;;;;;;4997235;28;20049;-58
2021/09/23 09:25:57;;;;;;;16.58;9.00;;;;;;;;;;4982811;28;20528;-59
2021/09/23 09:28:22;;;;;;;12.90;8.10;;;;;;;;;;4983759;28;20039;-59
2021/09/23 09:30:58;;;;;;;15.50;9.13;;;;;;;;;;5001710;28;20049;-59
2021/09/23 09:33:46;;;;;;;13.32;7.78;;;;;;;;;;5004677;28;20041;-58
2021/09/23 09:36:29;;;;;;;11.20;7.38;;;;;;;;;;4994255;28;20068;-58
2021/09/23 09:38:58;;;;;;;12.82;7.60;;;;;;;;;;4991696;28;20026;-58
2021/09/23 09:41:26;;;;;;;11.52;7.43;;;;;;;;;;4999339;28;20053;-59
2021/09/23 09:43:54;;;;;;;12.55;7.22;;;;;;;;;;4998186;28;20062;-58
2021/09/23 09:46:34;;;;;;;13.27;7.88;;;;;;;;;;4987678;28;20030;-59
2021/09/23 09:49:00;;;;;;;15.27;7.72;;;;;;;;;;5011560;28;20104;-58
2021/09/23 09:51:54;;;;;;;13.07;6.55;;;;;;;;;;5007477;28;20034;-58
2021/09/23 09:54:20;;;;;;;12.45;7.10;;;;;;;;;;5001177;28;20512;-57
2021/09/23 09:56:54;;;;;;;11.23;7.57;;;;;;;;;;5058146;28;20027;-59
2021/09/23 09:59:20;;;;;;;14.02;6.75;;;;;;;;;;5057513;28;20030;-59
2021/09/23 10:01:47;;;;;;;12.55;7.15;;;;;;;;;;5064716;28;20028;-58
2021/09/23 10:04:14;;;;;;;11.82;8.13;;;;;;;;;;5012525;28;20033;-58
2021/09/23 10:06:41;;;;;;;13.52;8.10;;;;;;;;;;5055187;28;20028;-58
2021/09/23 10:09:08;;;;;;;12.05;7.72;;;;;;;;;;4989556;28;20118;-59
2021/09/23 10:11:36;;;;;;;13.25;7.70;;;;;;;;;;5020358;28;20038;-59
2021/09/23 10:14:03;;;;;;;12.02;7.25;;;;;;;;;;4994299;28;20154;-59
2021/09/23 10:16:29;;;;;;;13.20;7.20;;;;;;;;;;5007776;28;20029;-59
2021/09/23 10:18:56;;;;;;;13.13;7.32;;;;;;;;;;5005821;28;20033;-59
2021/09/23 10:21:24;;;;;;;14.63;6.85;;;;;;;;;;5003161;28;20086;-59
2021/09/23 10:23:51;;;;;;;16.75;6.82;;;;;;;;;;5000590;28;20030;-59
2021/09/23 10:26:18;;;;;;;13.50;7.32;;;;;;;;;;5004927;28;20099;-59
2021/09/23 10:28:46;;;;;;;11.75;6.93;;;;;;;;;;4995682;28;20057;-59
2021/09/23 10:31:19;;;;;;;9.70;6.47;;;;;;;;;;4987245;28;20031;-59
2021/09/23 10:33:46;;;;;;;12.60;6.43;;;;;;;;;;5031311;28;20030;-59
2021/09/23 10:36:13;;;;;;;8.48;4.95;;;;;;;;;;5000211;28;20082;-58
2021/09/23 10:38:40;;;;;;;9.18;6.25;;;;;;;;;;5014330;28;20018;-58
2021/09/23 10:41:06;;;;;;;10.20;5.80;;;;;;;;;;4985484;28;20039;-58
2021/09/23 10:43:32;;;;;;;6.78;4.78;;;;;;;;;;4981477;28;20114;-58
2021/09/23 10:45:59;;;;;;;10.00;5.93;;;;;;;;;;5010179;28;20052;-59
2021/09/23 10:48:27;;;;;;;8.55;5.40;;;;;;;;;;5023172;28;20024;-59
2021/09/23 10:50:53;;;;;;;9.85;5.88;;;;;;;;;;5024365;28;20023;-58
2021/09/23 10:53:19;;;;;;;8.23;5.10;;;;;;;;;;4999371;28;20040;-58
2021/09/23 10:55:46;;;;;;;8.85;5.40;;;;;;;;;;5048009;28;20113;-58
2021/09/23 10:58:19;;;;;;;8.10;5.35;;;;;;;;;;5002858;28;20050;-59
2021/09/23 11:00:45;;;;;;;10.88;5.50;;;;;;;;;;4988447;28;20037;-58
2021/09/23 11:03:11;;;;;;;15.90;5.78;;;;;;;;;;4994831;28;20424;-58
2021/09/23 11:05:41;;;;;;;9.77;5.30;;;;;;;;;;5002623;28;20030;-59
2021/09/23 11:08:12;;;;;;;10.45;5.07;;;;;;;;;;5043365;28;20144;-58
2021/09/23 11:10:40;;;;;;;8.82;4.88;;;;;;;;;;4999418;28;20069;-58
2021/09/23 11:13:06;;;;;;;12.27;5.68;;;;;;;;;;4994077;28;20026;-58
2021/09/23 11:15:31;;;;;;;8.63;4.68;;;;;;;;;;4996361;28;20570;-58
2021/09/23 11:18:00;;;;;;;8.60;5.22;;;;;;;;;;5029293;28;20030;-58
2021/09/23 11:20:31;;;;;;;9.23;5.32;;;;;;;;;;4985452;28;20498;-57
2021/09/23 11:23:02;;;;;;;6.80;4.70;;;;;;;;;;4996988;28;20034;-57
2021/09/23 11:25:31;;;;;;;6.72;4.85;;;;;;;;;;4986108;28;20038;-58
2021/09/23 11:27:57;;;;;;;;;;;;;;;;;;5003149;28;20542;-58
2021/09/23 11:30:26;;;;;;;8.52;4.55;;;;;;;;;;4986762;28;19997;-58
2021/09/23 11:33:09;;;;;;;7.30;5.00;;;;;;;;;;5051546;28;20030;-58
2021/09/23 11:35:37;;;;;;;7.15;4.07;;;;;;;;;;4991855;28;20045;-60
2021/09/23 11:38:04;;;;;;;6.05;4.22;;;;;;;;;;4986685;28;20610;-59
2021/09/23 11:40:34;;;;;;;7.15;4.43;;;;;;;;;;5005259;28;20039;-58
2021/09/23 11:43:07;;;;;;;5.75;4.25;;;;;;;;;;4989323;28;20050;-59
2021/09/23 11:45:35;;;;;;;6.25;4.45;;;;;;;;;;4988232;28;20025;-58
2021/09/23 11:48:10;;;;;;;6.83;4.47;;;;;;;;;;5002464;28;20037;-59
2021/09/23 11:50:47;;;;;;;9.25;4.35;;;;;;;;;;4995496;28;20187;-60
2021/09/23 11:53:20;;;;;;;5.50;4.03;;;;;;;;;;5042787;28;20106;-60
2021/09/23 11:55:58;;;;;;;8.48;3.67;;;;;;;;;;4996808;28;21167;-58
2021/09/23 11:58:24;;;;;;;15.23;4.20;;;;;;;;;;4994384;28;20084;-58
2021/09/23 12:00:51;;;;;;;5.75;3.85;;;;;;;;;;4983061;28;20022;-58
2021/09/23 12:03:18;;;;;;;4.95;3.85;;;;;;;;;;4986033;28;20464;-58
2021/09/23 12:05:45;;;;;;;4.88;3.47;;;;;;;;;;4975844;28;20034;-59
2021/09/23 12:08:29;;;;;;;4.88;3.85;;;;;;;;;;5006971;28;20031;-59
2021/09/23 12:11:01;;;;;;;5.60;4.00;;;;;;;;;;4980755;28;20238;-58
2021/09/23 12:13:35;;;;;;;5.25;3.70;;;;;;;;;;5002944;28;20026;-59
2021/09/23 12:16:08;;;;;;;5.80;3.65;;;;;;;;;;5053076;28;20064;-59
2021/09/23 12:18:34;;;;;;;5.00;3.33;;;;;;;;;;4998163;28;20121;-58
2021/09/23 12:21:04;;;;;;;7.40;4.10;;;;;;;;;;4994580;28;20038;-60
2021/09/23 12:23:38;;;;;;;5.55;4.03;;;;;;;;;;4987092;28;20111;-59
2021/09/23 12:26:12;;;;;;;5.50;4.10;;;;;;;;;;4987449;28;20038;-58
2021/09/23 12:28:46;;;;;;;5.88;3.80;;;;;;;;;;4987671;28;20553;-58
2021/09/23 12:31:14;;;;;;;8.48;3.75;;;;;;;;;;5002176;28;20392;-60
2021/09/23 12:33:51;;;;;;;5.87;3.80;;;;;;;;;;4996536;28;20097;-59
2021/09/23 12:36:17;;;;;;;4.88;3.50;;;;;;;;;;5048180;28;20493;-59
2021/09/23 12:38:43;;;;;;;8.45;3.80;;;;;;;;;;4985818;28;20432;-60
2021/09/23 12:41:22;;;;;;;8.10;3.85;;;;;;;;;;5011584;28;20030;-59
2021/09/23 12:43:50;;;;;;;4.47;3.33;;;;;;;;;;4992664;28;20022;-59
2021/09/23 12:46:16;;;;;;;5.47;3.45;;;;;;;;;;4994152;28;20030;-59
2021/09/23 12:48:48;;;;;;;4.78;3.30;;;;;;;;;;4989792;28;20027;-60
2021/09/23 12:51:33;;;;;;;4.53;3.38;;;;;;;;;;4996286;28;20055;-59
2021/09/23 12:54:28;;;;;;;15.88;4.10;;;;;;;;;;4995172;28;20087;-59
2021/09/23 12:57:07;;;;;;;6.30;3.38;;;;;;;;;;4979770;28;20038;-60
2021/09/23 12:59:33;;;;;;;;;;;;;;;;;;5008466;28;20116;-59
2021/09/23 13:02:21;;;;;;;5.18;3.95;;;;;;;;;;4997996;28;19987;-59
2021/09/23 13:05:13;;;;;;;9.55;3.75;;;;;;;;;;4985514;28;20031;-59
2021/09/23 13:07:50;;;;;;;6.80;3.65;;;;;;;;;;5021191;28;20117;-59
2021/09/23 13:10:20;;;;;;;7.32;3.95;;;;;;;;;;4996639;28;20030;-59
2021/09/23 13:13:00;;;;;;;6.03;4.20;;;;;;;;;;5035565;28;20018;-59
2021/09/23 13:15:33;;;;;;;7.10;3.92;;;;;;;;;;4995075;28;20134;-60
2021/09/23 13:18:02;;;;;;;6.38;3.60;;;;;;;;;;4995328;28;20496;-60
2021/09/23 13:20:29;;;;;;;5.50;3.55;;;;;;;;;;5002765;28;20024;-59
2021/09/23 13:22:56;;;;;;;5.10;3.58;;;;;;;;;;4996611;28;20049;-60
2021/09/23 13:25:22;;;;;;;4.90;3.58;;;;;;;;;;4995927;28;20061;-59
2021/09/23 13:27:47;;;;;;;7.22;3.70;;;;;;;;;;5028927;28;20483;-59
2021/09/23 13:30:15;;;;;;;4.30;3.47;;;;;;;;;;4995850;28;20042;-58
2021/09/23 13:32:42;;;;;;;8.15;3.58;;;;;;;;;;4989348;28;20552;-59
2021/09/23 13:35:10;;;;;;;6.03;3.90;;;;;;;;;;4991053;28;20034;-60
2021/09/23 13:37:36;;;;;;;3.92;2.95;;;;;;;;;;5008172;28;20098;-59
2021/09/23 13:40:02;;;;;;;8.32;3.40;;;;;;;;;;4992587;28;20168;-58
2021/09/23 13:42:27;;;;;;;7.05;3.65;;;;;;;;;;4994380;28;20050;-60
2021/09/23 13:44:53;;;;;;;5.18;3.55;;;;;;;;;;5003662;28;20480;-59
2021/09/23 13:47:18;;;;;;;4.75;3.42;;;;;;;;;;4981949;28;20477;-59
2021/09/23 13:49:44;;;;;;;5.85;3.45;;;;;;;;;;5050556;28;20505;-59
2021/09/23 13:52:09;;;;;;;5.75;3.25;;;;;;;;;;5024358;28;20044;-59
2021/09/23 13:54:35;;;;;;;4.82;2.95;;;;;;;;;;5000267;28;20087;-59
2021/09/23 13:57:00;;;;;;;4.88;3.10;;;;;;;;;;5001349;28;20031;-59
2021/09/23 13:59:26;;;;;;;7.40;3.08;;;;;;;;;;4997835;28;20128;-59
2021/09/23 14:01:51;;;;;;;4.82;3.25;;;;;;;;;;5055684;28;20037;-59
2021/09/23 14:04:17;;;;;;;6.03;3.35;;;;;;;;;;4988408;28;20030;-59
2021/09/23 14:06:42;;;;;;;5.20;3.55;;;;;;;;;;4992330;28;20046;-59
2021/09/23 14:09:08;;;;;;;4.10;3.13;;;;;;;;;;4983016;28;20031;-59
2021/09/23 14:11:33;;;;;;;7.22;3.67;;;;;;;;;;4986165;28;20026;-60
2021/09/23 14:13:58;;;;;;;4.18;3.30;;;;;;;;;;5050245;28;20411;-59
2021/09/23 14:16:24;;;;;;;6.45;3.42;;;;;;;;;;5034000;28;20038;-60
2021/09/23 14:18:50;;;;;;;4.68;3.35;;;;;;;;;;4989244;28;20053;-59
2021/09/23 14:21:17;;;;;;;8.32;2.97;;;;;;;;;;4992920;28;20367;-60
2021/09/23 14:23:42;;;;;;;4.78;3.60;;;;;;;;;;4999125;28;20031;-59
2021/09/23 14:26:08;;;;;;;3.90;3.30;;;;;;;;;;5046184;28;20034;-58
2021/09/23 14:28:33;;;;;;;4.43;3.30;;;;;;;;;;4994729;28;20026;-58
2021/09/23 14:30:58;;;;;;;3.80;3.20;;;;;;;;;;5046966;28;20026;-58